Time,TemperatureF,DewpointF,PressureIn,WindDirection,WindDirectionDegrees,WindSpeedMPH,WindSpeedGustMPH,Humidity,HourlyPrecipIn,Conditions,Clouds,dailyrainin,SoftwareType,DateUTC
2016-12-10 00:02:00,9.9,-2.3,30.47,West,270,0.0,0.0,57,0.00,,---,0.00,VWS V15.00,2016-12-10 06:02:00,
2016-12-10 00:08:00,9.7,-2.5,30.47,NNW,338,0.0,0.0,57,0.00,,---,0.00,VWS V15.00,2016-12-10 06:08:00,
2016-12-10 00:14:00,9.5,-2.7,30.47,West,270,0.0,0.0,57,0.00,,---,0.00,VWS V15.00,2016-12-10 06:14:00,
2016-12-10 00:19:00,9.5,-2.7,30.47,WNW,292,0.0,0.0,57,0.00,,---,0.00,VWS V15.00,2016-12-10 06:19:00,
2016-12-10 00:25:00,9.5,-2.7,30.47,NW,315,0.0,0.0,57,0.00,,---,0.00,VWS V15.00,2016-12-10 06:25:00,
2016-12-10 00:30:00,9.5,-2.7,30.47,WSW,248,0.0,0.0,57,0.00,,---,0.00,VWS V15.00,2016-12-10 06:30:00,
2016-12-10 00:36:00,9.3,-2.8,30.47,WSW,248,0.0,0.0,57,0.00,,---,0.00,VWS V15.00,2016-12-10 06:36:00,
2016-12-10 00:41:00,9.1,-3.0,30.50,WNW,292,0.0,0.0,57,0.00,,---,0.00,VWS V15.00,2016-12-10 06:41:00,
2016-12-10 00:46:00,9.1,-3.0,30.50,North,0,0.0,0.0,57,0.00,,---,0.00,VWS V15.00,2016-12-10 06:46:00,
2016-12-10 00:51:00,9.0,-3.2,30.50,SW,225,0.0,0.0,57,0.00,,---,0.00,VWS V15.00,2016-12-10 06:51:00,
2016-12-10 00:57:00,8.8,-3.3,30.47,WNW,292,0.0,0.0,57,0.00,,---,0.00,VWS V15.00,2016-12-10 06:57:00,
2016-12-10 01:02:00,8.8,-3.3,30.47,NW,315,0.0,0.0,57,0.00,,---,0.00,VWS V15.00,2016-12-10 07:02:00,
2016-12-10 01:07:00,9.0,-3.2,30.47,West,270,0.0,0.0,57,0.00,,---,0.00,VWS V15.00,2016-12-10 07:07:00,
2016-12-10 01:12:00,8.8,-3.3,30.50,West,270,0.0,0.0,57,0.00,,---,0.00,VWS V15.00,2016-12-10 07:12:00,
2016-12-10 01:18:00,8.8,-3.3,30.50,WSW,248,0.0,0.0,57,0.00,,---,0.00,VWS V15.00,2016-12-10 07:18:00,
2016-12-10 01:23:00,8.6,-3.5,30.47,WNW,292,0.0,0.0,57,0.00,,---,0.00,VWS V15.00,2016-12-10 07:23:00,
2016-12-10 01:28:00,8.6,-3.5,30.47,NW,315,0.0,0.0,57,0.00,,---,0.00,VWS V15.00,2016-12-10 07:28:00,
2016-12-10 01:34:00,8.4,-3.7,30.47,West,270,0.0,0.0,57,0.00,,---,0.00,VWS V15.00,2016-12-10 07:34:00,
2016-12-10 01:39:00,8.2,-3.8,30.50,WNW,292,0.0,1.1,57,0.00,,---,0.00,VWS V15.00,2016-12-10 07:39:00,
2016-12-10 01:45:00,8.1,-4.0,30.50,NW,315,0.0,0.0,57,0.00,,---,0.00,VWS V15.00,2016-12-10 07:45:00,
2016-12-10 01:50:00,7.9,-4.2,30.50,WNW,292,0.0,0.0,57,0.00,,---,0.00,VWS V15.00,2016-12-10 07:50:00,
2016-12-10 01:56:00,7.7,-4.3,30.50,WNW,292,0.0,0.0,57,0.00,,---,0.00,VWS V15.00,2016-12-10 07:56:00,
2016-12-10 02:01:00,7.7,-4.3,30.50,NNW,338,0.0,0.0,57,0.00,,---,0.00,VWS V15.00,2016-12-10 08:01:00,
2016-12-10 02:07:00,7.5,-4.5,30.50,NW,315,0.0,0.0,57,0.00,,---,0.00,VWS V15.00,2016-12-10 08:07:00,
2016-12-10 02:13:00,7.5,-4.5,30.50,WSW,248,0.0,0.0,57,0.00,,---,0.00,VWS V15.00,2016-12-10 08:13:00,
2016-12-10 02:18:00,7.5,-4.5,30.50,WSW,248,0.0,0.0,57,0.00,,---,0.00,VWS V15.00,2016-12-10 08:18:00,
2016-12-10 02:23:00,7.3,-4.7,30.50,WSW,248,0.0,0.0,57,0.00,,---,0.00,VWS V15.00,2016-12-10 08:23:00,
2016-12-10 02:28:00,7.2,-4.9,30.50,NNW,338,0.0,0.0,57,0.00,,---,0.00,VWS V15.00,2016-12-10 08:28:00,
2016-12-10 02:34:00,7.2,-4.9,30.50,West,270,0.0,0.0,57,0.00,,---,0.00,VWS V15.00,2016-12-10 08:34:00,
2016-12-10 02:39:00,7.2,-4.9,30.50,NW,315,0.0,0.0,57,0.00,,---,0.00,VWS V15.00,2016-12-10 08:39:00,
2016-12-10 02:44:00,7.2,-4.9,30.50,West,270,0.0,0.0,57,0.00,,---,0.00,VWS V15.00,2016-12-10 08:44:00,
2016-12-10 02:49:00,7.0,-5.0,30.50,NW,315,0.0,0.0,57,0.00,,---,0.00,VWS V15.00,2016-12-10 08:49:00,
2016-12-10 02:55:00,7.0,-5.0,30.50,West,270,0.0,0.0,57,0.00,,---,0.00,VWS V15.00,2016-12-10 08:55:00,
2016-12-10 03:00:00,6.8,-5.2,30.50,WNW,292,0.0,2.5,57,0.00,,---,0.00,VWS V15.00,2016-12-10 09:00:00,
2016-12-10 03:06:00,6.8,-5.2,30.50,West,270,0.0,0.0,57,0.00,,---,0.00,VWS V15.00,2016-12-10 09:06:00,
2016-12-10 03:12:00,6.8,-5.2,30.50,SW,225,0.0,0.0,57,0.00,,---,0.00,VWS V15.00,2016-12-10 09:12:00,
2016-12-10 03:17:00,6.8,-5.2,30.50,NNW,338,0.0,0.0,57,0.00,,---,0.00,VWS V15.00,2016-12-10 09:17:00,
2016-12-10 03:23:00,6.6,-5.4,30.50,WNW,292,0.0,0.0,57,0.00,,---,0.00,VWS V15.00,2016-12-10 09:23:00,
2016-12-10 03:28:00,6.6,-5.4,30.50,NW,315,0.0,0.0,57,0.00,,---,0.00,VWS V15.00,2016-12-10 09:28:00,
2016-12-10 03:34:00,6.4,-5.5,30.50,West,270,0.0,0.0,57,0.00,,---,0.00,VWS V15.00,2016-12-10 09:34:00,
2016-12-10 03:39:00,6.3,-5.7,30.50,NW,315,0.0,0.0,57,0.00,,---,0.00,VWS V15.00,2016-12-10 09:39:00,
2016-12-10 03:45:00,6.3,-5.7,30.50,West,270,0.0,0.0,57,0.00,,---,0.00,VWS V15.00,2016-12-10 09:45:00,
2016-12-10 03:51:00,6.3,-5.7,30.50,NNE,22,0.0,0.0,57,0.00,,---,0.00,VWS V15.00,2016-12-10 09:51:00,
2016-12-10 03:56:00,6.3,-5.7,30.50,NW,315,0.0,0.0,57,0.00,,---,0.00,VWS V15.00,2016-12-10 09:56:00,
2016-12-10 04:02:00,6.1,-5.9,30.50,South,180,0.0,0.0,57,0.00,,---,0.00,VWS V15.00,2016-12-10 10:02:00,
2016-12-10 04:07:00,6.1,-5.9,30.50,North,0,0.0,0.0,57,0.00,,---,0.00,VWS V15.00,2016-12-10 10:07:00,
2016-12-10 04:13:00,6.1,-5.9,30.47,North,0,0.0,0.0,57,0.00,,---,0.00,VWS V15.00,2016-12-10 10:13:00,
2016-12-10 04:19:00,6.1,-5.9,30.47,WNW,292,0.0,0.0,57,0.00,,---,0.00,VWS V15.00,2016-12-10 10:19:00,
2016-12-10 04:24:00,5.9,-6.0,30.47,WNW,292,0.0,0.0,57,0.00,,---,0.00,VWS V15.00,2016-12-10 10:24:00,
2016-12-10 04:29:00,5.9,-6.0,30.47,West,270,0.0,0.0,57,0.00,,---,0.00,VWS V15.00,2016-12-10 10:29:00,
2016-12-10 04:34:00,5.9,-6.0,30.47,NW,315,0.0,0.0,57,0.00,,---,0.00,VWS V15.00,2016-12-10 10:34:00,
2016-12-10 04:40:00,5.9,-6.0,30.47,NW,315,0.0,0.0,57,0.00,,---,0.00,VWS V15.00,2016-12-10 10:40:00,
2016-12-10 04:45:00,5.9,-6.0,30.47,WSW,248,0.0,0.0,57,0.00,,---,0.00,VWS V15.00,2016-12-10 10:45:00,
2016-12-10 04:51:00,5.9,-6.0,30.47,West,270,0.0,0.0,57,0.00,,---,0.00,VWS V15.00,2016-12-10 10:51:00,
2016-12-10 04:56:00,5.9,-6.0,30.47,WSW,248,0.0,0.0,57,0.00,,---,0.00,VWS V15.00,2016-12-10 10:56:00,
2016-12-10 05:02:00,5.9,-6.0,30.47,NNW,338,0.0,0.0,57,0.00,,---,0.00,VWS V15.00,2016-12-10 11:02:00,
2016-12-10 05:13:00,5.5,-6.4,30.47,WSW,248,0.0,0.0,57,0.00,,---,0.00,VWS V15.00,2016-12-10 11:13:00,
2016-12-10 05:19:00,5.5,-6.4,30.47,WNW,292,0.0,0.0,57,0.00,,---,0.00,VWS V15.00,2016-12-10 11:19:00,
2016-12-10 05:24:00,5.5,-6.4,30.47,NW,315,0.0,0.0,57,0.00,,---,0.00,VWS V15.00,2016-12-10 11:24:00,
2016-12-10 05:30:00,5.5,-6.4,30.47,WSW,248,0.0,0.0,57,0.00,,---,0.00,VWS V15.00,2016-12-10 11:30:00,
2016-12-10 05:36:00,5.5,-6.4,30.47,WNW,292,0.0,0.0,57,0.00,,---,0.00,VWS V15.00,2016-12-10 11:36:00,
2016-12-10 05:41:00,5.5,-6.4,30.47,WNW,292,0.0,0.0,57,0.00,,---,0.00,VWS V15.00,2016-12-10 11:41:00,
2016-12-10 05:47:00,5.5,-6.4,30.47,WSW,248,0.0,0.0,57,0.00,,---,0.00,VWS V15.00,2016-12-10 11:47:00,
2016-12-10 05:52:00,5.4,-6.6,30.47,NW,315,0.0,0.0,57,0.00,,---,0.00,VWS V15.00,2016-12-10 11:52:00,
2016-12-10 05:58:00,5.5,-6.4,30.47,North,0,0.0,0.0,57,0.00,,---,0.00,VWS V15.00,2016-12-10 11:58:00,
2016-12-10 06:03:00,5.5,-6.4,30.47,WSW,248,0.0,0.0,57,0.00,,---,0.00,VWS V15.00,2016-12-10 12:03:00,
2016-12-10 06:08:00,5.5,-6.4,30.50,WSW,248,0.0,0.0,57,0.00,,---,0.00,VWS V15.00,2016-12-10 12:08:00,
2016-12-10 06:14:00,5.4,-6.6,30.50,SSW,202,0.0,0.0,57,0.00,,---,0.00,VWS V15.00,2016-12-10 12:14:00,
2016-12-10 06:19:00,5.4,-6.6,30.50,SSW,202,0.0,0.0,57,0.00,,---,0.00,VWS V15.00,2016-12-10 12:19:00,
2016-12-10 06:24:00,5.4,-6.6,30.50,NW,315,0.0,0.0,57,0.00,,---,0.00,VWS V15.00,2016-12-10 12:24:00,
2016-12-10 06:30:00,5.2,-6.7,30.50,NW,315,0.0,0.0,57,0.00,,---,0.00,VWS V15.00,2016-12-10 12:30:00,
2016-12-10 06:36:00,5.2,-6.7,30.50,NNE,22,0.0,0.0,57,0.00,,---,0.00,VWS V15.00,2016-12-10 12:36:00,
2016-12-10 06:41:00,5.2,-6.7,30.50,WNW,292,0.0,0.0,57,0.00,,---,0.00,VWS V15.00,2016-12-10 12:41:00,
2016-12-10 06:47:00,5.0,-6.9,30.50,NNE,22,0.0,0.0,57,0.00,,---,0.00,VWS V15.00,2016-12-10 12:47:00,
2016-12-10 06:52:00,5.0,-6.9,30.50,WSW,248,0.0,0.0,57,0.00,,---,0.00,VWS V15.00,2016-12-10 12:52:00,
2016-12-10 06:58:00,5.2,-6.7,30.50,North,0,0.0,0.0,57,0.00,,---,0.00,VWS V15.00,2016-12-10 12:58:00,
2016-12-10 07:04:00,5.2,-6.7,30.50,West,270,0.0,0.0,57,0.00,,---,0.00,VWS V15.00,2016-12-10 13:04:00,
2016-12-10 07:09:00,5.0,-6.9,30.50,WNW,292,0.0,0.0,57,0.00,,---,0.00,VWS V15.00,2016-12-10 13:09:00,
2016-12-10 07:15:00,5.0,-6.9,30.50,WNW,292,0.0,0.0,57,0.00,,---,0.00,VWS V15.00,2016-12-10 13:15:00,
2016-12-10 07:20:00,5.0,-6.9,30.50,WNW,292,0.0,0.0,57,0.00,,---,0.00,VWS V15.00,2016-12-10 13:20:00,
2016-12-10 07:26:00,5.0,-6.9,30.50,WNW,292,0.0,0.0,57,0.00,,---,0.00,VWS V15.00,2016-12-10 13:26:00,
2016-12-10 07:32:00,5.0,-6.9,30.50,NNE,22,0.0,0.0,57,0.00,,---,0.00,VWS V15.00,2016-12-10 13:32:00,
2016-12-10 07:37:00,5.0,-6.9,30.50,WNW,292,0.0,0.0,57,0.00,,---,0.00,VWS V15.00,2016-12-10 13:37:00,
2016-12-10 07:43:00,5.2,-6.7,30.50,NNE,22,0.0,0.0,57,0.00,,---,0.00,VWS V15.00,2016-12-10 13:43:00,
2016-12-10 07:48:00,5.4,-6.6,30.50,WNW,292,0.0,0.0,57,0.00,,---,0.00,VWS V15.00,2016-12-10 13:48:00,
2016-12-10 07:54:00,5.4,-6.6,30.47,North,0,0.0,0.0,57,0.00,,---,0.00,VWS V15.00,2016-12-10 13:54:00,
2016-12-10 08:00:00,5.4,-6.6,30.47,North,0,0.0,0.0,57,0.00,,---,0.00,VWS V15.00,2016-12-10 14:00:00,
2016-12-10 08:05:00,5.4,-6.6,30.47,NNE,22,0.0,0.0,57,0.00,,---,0.00,VWS V15.00,2016-12-10 14:05:00,
2016-12-10 08:11:00,5.5,-6.4,30.50,NNE,22,0.0,0.0,57,0.00,,---,0.00,VWS V15.00,2016-12-10 14:11:00,
2016-12-10 08:16:00,5.5,-6.4,30.50,NNE,22,0.0,0.0,57,0.00,,---,0.00,VWS V15.00,2016-12-10 14:16:00,
2016-12-10 08:22:00,5.7,-6.2,30.50,NNE,22,0.0,0.0,57,0.00,,---,0.00,VWS V15.00,2016-12-10 14:22:00,
2016-12-10 08:27:00,5.7,-6.2,30.47,NNE,22,0.0,0.0,57,0.00,,---,0.00,VWS V15.00,2016-12-10 14:27:00,
2016-12-10 08:32:00,6.1,-5.9,30.47,NNE,22,0.0,0.0,57,0.00,,---,0.00,VWS V15.00,2016-12-10 14:32:00,
2016-12-10 08:38:00,6.1,-5.9,30.44,North,0,0.0,0.0,57,0.00,,---,0.00,VWS V15.00,2016-12-10 14:38:00,
2016-12-10 08:43:00,6.3,-5.7,30.44,NNE,22,0.0,0.0,57,0.00,,---,0.00,VWS V15.00,2016-12-10 14:43:00,
2016-12-10 08:49:00,6.3,-5.7,30.44,ENE,68,0.0,0.0,57,0.00,,---,0.00,VWS V15.00,2016-12-10 14:49:00,
2016-12-10 08:54:00,6.4,-5.5,30.47,NNE,22,0.0,0.0,57,0.00,,---,0.00,VWS V15.00,2016-12-10 14:54:00,
2016-12-10 08:59:00,6.4,-5.5,30.47,NNE,22,0.0,0.0,57,0.00,,---,0.00,VWS V15.00,2016-12-10 14:59:00,
2016-12-10 09:04:00,6.6,-5.4,30.47,ENE,68,0.0,0.0,57,0.00,,---,0.00,VWS V15.00,2016-12-10 15:04:00,
2016-12-10 09:10:00,7.0,-5.0,30.44,ENE,68,0.0,0.0,57,0.00,,---,0.00,VWS V15.00,2016-12-10 15:10:00,
2016-12-10 09:15:00,7.0,-5.0,30.44,East,90,0.0,0.0,57,0.00,,---,0.00,VWS V15.00,2016-12-10 15:15:00,
2016-12-10 09:20:00,7.0,-5.0,30.44,NE,45,0.0,0.0,57,0.00,,---,0.00,VWS V15.00,2016-12-10 15:20:00,
2016-12-10 09:25:00,7.3,-4.7,30.47,NE,45,0.0,0.0,57,0.00,,---,0.00,VWS V15.00,2016-12-10 15:25:00,
2016-12-10 09:31:00,7.7,-4.3,30.47,NE,45,0.0,0.0,57,0.00,,---,0.00,VWS V15.00,2016-12-10 15:31:00,
2016-12-10 09:36:00,7.7,-4.3,30.47,NNW,338,0.0,0.0,57,0.00,,---,0.00,VWS V15.00,2016-12-10 15:36:00,
2016-12-10 09:42:00,7.7,-4.3,30.47,SSE,158,0.0,0.0,57,0.00,,---,0.00,VWS V15.00,2016-12-10 15:42:00,
2016-12-10 09:47:00,7.7,-4.3,30.47,SE,135,0.0,0.0,57,0.00,,---,0.00,VWS V15.00,2016-12-10 15:47:00,
2016-12-10 09:53:00,8.1,-4.0,30.44,SE,135,0.0,0.0,57,0.00,,---,0.00,VWS V15.00,2016-12-10 15:53:00,
2016-12-10 09:58:00,8.4,-3.7,30.44,SE,135,0.0,0.0,57,0.00,,---,0.00,VWS V15.00,2016-12-10 15:58:00,
2016-12-10 10:03:00,8.6,-3.5,30.44,SE,135,0.0,0.0,57,0.00,,---,0.00,VWS V15.00,2016-12-10 16:03:00,
2016-12-10 10:09:00,9.0,-3.2,30.47,NW,315,0.0,0.0,57,0.00,,---,0.00,VWS V15.00,2016-12-10 16:09:00,
2016-12-10 10:14:00,9.0,-3.2,30.47,NNW,338,0.0,0.0,57,0.00,,---,0.00,VWS V15.00,2016-12-10 16:14:00,
2016-12-10 10:20:00,9.1,-3.0,30.47,NNE,22,0.0,0.0,57,0.00,,---,0.00,VWS V15.00,2016-12-10 16:20:00,
2016-12-10 10:25:00,9.3,-2.8,30.44,NNE,22,0.0,0.0,57,0.00,,---,0.00,VWS V15.00,2016-12-10 16:25:00,
2016-12-10 10:30:00,9.5,-2.7,30.44,NNE,22,0.0,0.0,57,0.00,,---,0.00,VWS V15.00,2016-12-10 16:30:00,
2016-12-10 10:35:00,9.5,-2.7,30.44,NNE,22,0.0,0.0,57,0.00,,---,0.00,VWS V15.00,2016-12-10 16:35:00,
2016-12-10 10:41:00,9.5,-2.7,30.44,ESE,112,0.0,0.0,57,0.00,,---,0.00,VWS V15.00,2016-12-10 16:41:00,
2016-12-10 10:46:00,9.3,-2.8,30.44,SSE,158,0.0,0.0,57,0.00,,---,0.00,VWS V15.00,2016-12-10 16:46:00,
2016-12-10 10:51:00,9.5,-2.7,30.44,SSW,202,0.0,0.0,57,0.00,,---,0.00,VWS V15.00,2016-12-10 16:51:00,
2016-12-10 10:56:00,9.7,-2.5,30.44,NNE,22,0.0,0.0,57,0.00,,---,0.00,VWS V15.00,2016-12-10 16:56:00,
2016-12-10 11:02:00,9.9,-2.3,30.44,NNE,22,0.0,0.0,57,0.00,,---,0.00,VWS V15.00,2016-12-10 17:02:00,
2016-12-10 11:07:00,10.0,-2.1,30.44,NE,45,0.0,0.0,57,0.00,,---,0.00,VWS V15.00,2016-12-10 17:07:00,
2016-12-10 11:12:00,10.0,-2.1,30.41,NE,45,0.0,0.0,57,0.00,,---,0.00,VWS V15.00,2016-12-10 17:12:00,
2016-12-10 11:17:00,10.2,-2.0,30.41,NNE,22,0.0,0.0,57,0.00,,---,0.00,VWS V15.00,2016-12-10 17:17:00,
2016-12-10 11:23:00,10.4,-1.8,30.41,SE,135,0.0,0.0,57,0.00,,---,0.00,VWS V15.00,2016-12-10 17:23:00,
2016-12-10 11:28:00,10.6,-1.6,30.41,SE,135,0.0,0.0,57,0.00,,---,0.00,VWS V15.00,2016-12-10 17:28:00,
2016-12-10 11:34:00,10.8,-1.5,30.41,NNW,338,0.0,0.0,57,0.00,,---,0.00,VWS V15.00,2016-12-10 17:34:00,
2016-12-10 11:40:00,10.8,-1.5,30.41,NNE,22,0.0,0.0,57,0.00,,---,0.00,VWS V15.00,2016-12-10 17:40:00,
2016-12-10 11:45:00,10.8,-1.5,30.41,NNE,22,0.0,0.0,57,0.00,,---,0.00,VWS V15.00,2016-12-10 17:45:00,
2016-12-10 11:50:00,10.9,-1.3,30.41,ENE,68,0.0,0.0,57,0.00,,---,0.00,VWS V15.00,2016-12-10 17:50:00,
2016-12-10 11:55:00,11.1,-1.1,30.39,SSE,158,0.0,0.0,57,0.00,,---,0.00,VWS V15.00,2016-12-10 17:55:00,
2016-12-10 12:00:00,11.3,-1.0,30.39,East,90,0.0,0.0,57,0.00,,---,0.00,VWS V15.00,2016-12-10 18:00:00,
2016-12-10 12:06:00,11.5,-0.8,30.39,ENE,68,0.0,0.0,57,0.00,,---,0.00,VWS V15.00,2016-12-10 18:06:00,
2016-12-10 12:11:00,11.5,-0.8,30.39,ESE,112,0.0,0.0,57,0.00,,---,0.00,VWS V15.00,2016-12-10 18:11:00,
2016-12-10 12:16:00,11.7,-0.6,30.39,SSE,158,0.0,0.0,57,0.00,,---,0.00,VWS V15.00,2016-12-10 18:16:00,
2016-12-10 12:21:00,11.5,-0.8,30.39,South,180,0.0,0.0,57,0.00,,---,0.00,VWS V15.00,2016-12-10 18:21:00,
2016-12-10 12:27:00,11.5,-0.8,30.39,NNE,22,0.0,0.0,57,0.00,,---,0.00,VWS V15.00,2016-12-10 18:27:00,
2016-12-10 12:33:00,11.7,-0.6,30.39,East,90,0.0,0.0,57,0.00,,---,0.00,VWS V15.00,2016-12-10 18:33:00,
2016-12-10 12:38:00,12.0,-0.3,30.39,SSE,158,0.0,0.0,57,0.00,,---,0.00,VWS V15.00,2016-12-10 18:38:00,
2016-12-10 12:44:00,12.0,-0.3,30.39,SE,135,0.0,0.0,57,0.00,,---,0.00,VWS V15.00,2016-12-10 18:44:00,
2016-12-10 12:49:00,12.0,-0.3,30.39,SE,135,0.0,0.0,57,0.00,,---,0.00,VWS V15.00,2016-12-10 18:49:00,
2016-12-10 12:55:00,12.0,-0.3,30.36,ESE,112,0.0,0.0,57,0.00,,---,0.00,VWS V15.00,2016-12-10 18:55:00,
2016-12-10 13:00:00,12.0,-0.3,30.36,ENE,68,0.0,0.0,57,0.00,,---,0.00,VWS V15.00,2016-12-10 19:00:00,
2016-12-10 13:05:00,12.4,0.1,30.36,ESE,112,0.0,0.0,57,0.00,,---,0.00,VWS V15.00,2016-12-10 19:05:00,
2016-12-10 13:10:00,12.6,0.2,30.39,East,90,0.0,0.0,57,0.00,,---,0.00,VWS V15.00,2016-12-10 19:10:00,
2016-12-10 13:16:00,12.6,0.2,30.39,ENE,68,0.0,0.0,57,0.00,,---,0.00,VWS V15.00,2016-12-10 19:16:00,
2016-12-10 13:21:00,12.4,0.1,30.39,East,90,0.0,0.0,57,0.00,,---,0.00,VWS V15.00,2016-12-10 19:21:00,
2016-12-10 13:26:00,12.6,0.2,30.36,ESE,112,0.0,0.0,57,0.00,,---,0.00,VWS V15.00,2016-12-10 19:26:00,
2016-12-10 13:31:00,12.6,0.2,30.36,SSW,202,0.0,0.0,57,0.00,,---,0.00,VWS V15.00,2016-12-10 19:31:00,
2016-12-10 13:37:00,12.7,0.4,30.36,SSE,158,0.0,0.0,57,0.00,,---,0.00,VWS V15.00,2016-12-10 19:37:00,
2016-12-10 13:42:00,12.7,0.4,30.36,NNW,338,0.0,0.0,57,0.00,,---,0.00,VWS V15.00,2016-12-10 19:42:00,
2016-12-10 13:47:00,12.7,0.4,30.36,South,180,0.0,0.0,57,0.00,,---,0.00,VWS V15.00,2016-12-10 19:47:00,
2016-12-10 13:52:00,13.1,0.7,30.36,SE,135,0.0,0.0,57,0.00,,---,0.00,VWS V15.00,2016-12-10 19:52:00,
2016-12-10 13:58:00,13.1,0.7,30.36,SSE,158,0.0,0.0,57,0.00,,---,0.00,VWS V15.00,2016-12-10 19:58:00,
2016-12-10 14:04:00,13.5,1.1,30.36,South,180,0.0,0.0,57,0.00,,---,0.00,VWS V15.00,2016-12-10 20:04:00,
2016-12-10 14:09:00,13.5,1.1,30.36,South,180,0.0,0.0,57,0.00,,---,0.00,VWS V15.00,2016-12-10 20:09:00,
2016-12-10 14:14:00,13.5,1.1,30.36,SSE,158,0.0,0.0,57,0.00,,---,0.00,VWS V15.00,2016-12-10 20:14:00,
2016-12-10 14:19:00,13.5,1.1,30.36,SSE,158,0.0,0.0,57,0.00,,---,0.00,VWS V15.00,2016-12-10 20:19:00,
2016-12-10 14:24:00,13.3,0.9,30.36,South,180,0.0,0.0,57,0.00,,---,0.00,VWS V15.00,2016-12-10 20:24:00,
2016-12-10 14:29:00,13.3,0.9,30.36,NNW,338,0.0,0.0,57,0.00,,---,0.00,VWS V15.00,2016-12-10 20:29:00,
2016-12-10 14:34:00,12.9,0.6,30.36,NNW,338,0.0,0.0,57,0.00,,---,0.00,VWS V15.00,2016-12-10 20:34:00,
2016-12-10 14:40:00,13.1,0.7,30.36,North,0,0.0,0.0,57,0.00,,---,0.00,VWS V15.00,2016-12-10 20:40:00,
2016-12-10 14:46:00,13.1,0.7,30.36,SSE,158,0.0,0.0,57,0.00,,---,0.00,VWS V15.00,2016-12-10 20:46:00,
2016-12-10 14:51:00,13.1,0.7,30.36,SSE,158,0.0,0.0,57,0.00,,---,0.00,VWS V15.00,2016-12-10 20:51:00,
2016-12-10 14:57:00,12.9,0.6,30.36,NNE,22,0.0,0.0,57,0.00,,---,0.00,VWS V15.00,2016-12-10 20:57:00,
2016-12-10 15:02:00,12.9,0.6,30.36,South,180,0.0,0.0,57,0.00,,---,0.00,VWS V15.00,2016-12-10 21:02:00,
2016-12-10 15:08:00,12.7,0.4,30.33,South,180,0.0,0.0,57,0.00,,---,0.00,VWS V15.00,2016-12-10 21:08:00,
2016-12-10 15:13:00,12.7,0.4,30.33,SSE,158,0.0,0.0,57,0.00,,---,0.00,VWS V15.00,2016-12-10 21:13:00,
2016-12-10 15:18:00,12.9,0.6,30.33,SSE,158,0.0,0.0,57,0.00,,---,0.00,VWS V15.00,2016-12-10 21:18:00,
2016-12-10 15:23:00,12.9,0.6,30.33,ESE,112,0.0,0.0,57,0.00,,---,0.00,VWS V15.00,2016-12-10 21:23:00,
2016-12-10 15:29:00,12.7,0.4,30.33,SE,135,0.0,0.0,57,0.00,,---,0.00,VWS V15.00,2016-12-10 21:29:00,
2016-12-10 15:35:00,12.7,0.4,30.33,SE,135,0.0,0.0,57,0.00,,---,0.00,VWS V15.00,2016-12-10 21:35:00,
2016-12-10 15:40:00,12.7,0.4,30.33,SSE,158,0.0,0.0,57,0.00,,---,0.00,VWS V15.00,2016-12-10 21:40:00,
2016-12-10 15:45:00,12.6,0.2,30.33,SSE,158,0.0,0.0,57,0.00,,---,0.00,VWS V15.00,2016-12-10 21:45:00,